sensor_id;sensor_type;location;lat;lon;timestamp;pressure;altitude;pressure_sealevel;temperature;humidity
43701;BME280;58809;47.984;7.964;2023-03-18T00:02:36;96848.13;;;16.81;40.13
43701;BME280;58809;47.984;7.964;2023-03-18T00:05:38;96849.06;;;16.74;40.29
43701;BME280;58809;47.984;7.964;2023-03-18T00:08:42;96848.34;;;16.67;40.37
43701;BME280;58809;47.984;7.964;2023-03-18T00:11:45;96841.34;;;16.54;40.91
43701;BME280;58809;47.984;7.964;2023-03-18T00:14:47;96839.03;;;16.28;41.54
43701;BME280;58809;47.984;7.964;2023-03-18T00:17:48;96848.38;;;15.88;42.79
43701;BME280;58809;47.984;7.964;2023-03-18T00:20:50;96842.84;;;15.65;43.73
43701;BME280;58809;47.984;7.964;2023-03-18T00:23:52;96844.34;;;15.61;44.45
43701;BME280;58809;47.984;7.964;2023-03-18T00:26:56;96847.75;;;16.05;44.26
43701;BME280;58809;47.984;7.964;2023-03-18T00:29:58;96853.22;;;15.91;44.41
43701;BME280;58809;47.984;7.964;2023-03-18T00:32:59;96847.25;;;16.26;44.12
43701;BME280;58809;47.984;7.964;2023-03-18T00:36:01;96851.75;;;15.15;46.08
43701;BME280;58809;47.984;7.964;2023-03-18T00:39:03;96858.59;;;14.79;46.94
43701;BME280;58809;47.984;7.964;2023-03-18T00:42:05;96852.38;;;14.60;47.54
43701;BME280;58809;47.984;7.964;2023-03-18T00:45:11;96857.13;;;15.33;46.06
43701;BME280;58809;47.984;7.964;2023-03-18T00:48:12;96856.66;;;14.93;46.47
43701;BME280;58809;47.984;7.964;2023-03-18T00:51:16;96857.34;;;15.32;46.49
43701;BME280;58809;47.984;7.964;2023-03-18T00:54:18;96857.72;;;15.35;45.89
43701;BME280;58809;47.984;7.964;2023-03-18T00:57:22;96863.47;;;15.07;46.57
43701;BME280;58809;47.984;7.964;2023-03-18T01:00:24;96863.94;;;14.72;47.21
43701;BME280;58809;47.984;7.964;2023-03-18T01:03:26;96861.19;;;14.54;47.62
43701;BME280;58809;47.984;7.964;2023-03-18T01:06:30;96857.31;;;14.50;47.79
43701;BME280;58809;47.984;7.964;2023-03-18T01:09:32;96860.06;;;14.36;47.98
43701;BME280;58809;47.984;7.964;2023-03-18T01:12:35;96858.56;;;14.47;47.49
43701;BME280;58809;47.984;7.964;2023-03-18T01:15:38;96865.09;;;14.83;46.06
43701;BME280;58809;47.984;7.964;2023-03-18T01:18:41;96862.84;;;15.12;44.66
43701;BME280;58809;47.984;7.964;2023-03-18T01:21:42;96865.66;;;15.17;44.81
43701;BME280;58809;47.984;7.964;2023-03-18T01:24:44;96858.31;;;15.12;44.64
43701;BME280;58809;47.984;7.964;2023-03-18T01:27:48;96847.56;;;15.00;44.93
43701;BME280;58809;47.984;7.964;2023-03-18T01:30:50;96859.59;;;14.78;45.73
43701;BME280;58809;47.984;7.964;2023-03-18T01:33:54;96846.03;;;14.54;46.45
43701;BME280;58809;47.984;7.964;2023-03-18T01:36:56;96851.91;;;14.31;46.86
43701;BME280;58809;47.984;7.964;2023-03-18T01:40:01;96848.53;;;14.49;45.89
43701;BME280;58809;47.984;7.964;2023-03-18T01:43:16;96835.59;;;14.85;45.02
43701;BME280;58809;47.984;7.964;2023-03-18T01:49:36;96841.06;;;14.65;45.27
43701;BME280;58809;47.984;7.964;2023-03-18T01:52:40;96847.25;;;14.52;45.87
43701;BME280;58809;47.984;7.964;2023-03-18T01:55:44;96844.72;;;14.32;46.36
43701;BME280;58809;47.984;7.964;2023-03-18T01:58:50;96836.84;;;14.12;47.09
43701;BME280;58809;47.984;7.964;2023-03-18T02:01:57;96833.25;;;13.93;47.63
43701;BME280;58809;47.984;7.964;2023-03-18T02:05:05;96823.38;;;13.48;48.47
43701;BME280;58809;47.984;7.964;2023-03-18T02:08:07;96824.16;;;13.55;48.62
43701;BME280;58809;47.984;7.964;2023-03-18T02:11:14;96831.78;;;13.18;49.79
43701;BME280;58809;47.984;7.964;2023-03-18T02:14:19;96822.41;;;12.89;50.63
43701;BME280;58809;47.984;7.964;2023-03-18T02:17:25;96813.84;;;12.54;51.42
43701;BME280;58809;47.984;7.964;2023-03-18T02:20:41;96818.63;;;12.03;52.84
43701;BME280;58809;47.984;7.964;2023-03-18T02:24:00;96816.66;;;12.25;52.77
43701;BME280;58809;47.984;7.964;2023-03-18T02:27:23;96819.94;;;12.54;52.59
43701;BME280;58809;47.984;7.964;2023-03-18T02:30:32;96820.38;;;12.58;52.47
43701;BME280;58809;47.984;7.964;2023-03-18T02:33:37;96825.66;;;12.58;52.23
43701;BME280;58809;47.984;7.964;2023-03-18T02:36:41;96822.81;;;12.59;52.78
43701;BME280;58809;47.984;7.964;2023-03-18T02:39:43;96821.81;;;12.60;52.48
43701;BME280;58809;47.984;7.964;2023-03-18T02:42:46;96817.09;;;12.56;53.00
43701;BME280;58809;47.984;7.964;2023-03-18T02:46:01;96819.34;;;12.52;52.64
43701;BME280;58809;47.984;7.964;2023-03-18T02:49:07;96813.41;;;12.43;52.88
43701;BME280;58809;47.984;7.964;2023-03-18T02:52:10;96808.09;;;12.37;53.00
43701;BME280;58809;47.984;7.964;2023-03-18T02:55:12;96826.25;;;12.33;53.07
43701;BME280;58809;47.984;7.964;2023-03-18T02:58:14;96822.59;;;12.27;53.50
43701;BME280;58809;47.984;7.964;2023-03-18T03:01:17;96828.88;;;12.20;53.77
43701;BME280;58809;47.984;7.964;2023-03-18T03:04:22;96832.56;;;12.19;53.76
43701;BME280;58809;47.984;7.964;2023-03-18T03:07:26;96822.53;;;12.14;53.80
43701;BME280;58809;47.984;7.964;2023-03-18T03:10:30;96826.19;;;12.06;53.89
43701;BME280;58809;47.984;7.964;2023-03-18T03:13:32;96825.97;;;12.01;53.88
43701;BME280;58809;47.984;7.964;2023-03-18T03:16:34;96820.78;;;11.86;54.58
43701;BME280;58809;47.984;7.964;2023-03-18T03:19:36;96825.47;;;11.84;54.88
43701;BME280;58809;47.984;7.964;2023-03-18T03:22:38;96830.97;;;11.76;55.13
43701;BME280;58809;47.984;7.964;2023-03-18T03:25:40;96832.78;;;11.75;55.12
43701;BME280;58809;47.984;7.964;2023-03-18T03:28:43;96825.00;;;11.67;54.79
43701;BME280;58809;47.984;7.964;2023-03-18T03:31:44;96819.22;;;11.57;54.98
43701;BME280;58809;47.984;7.964;2023-03-18T03:34:46;96826.94;;;11.52;55.07
43701;BME280;58809;47.984;7.964;2023-03-18T03:37:49;96832.81;;;11.41;55.48
43701;BME280;58809;47.984;7.964;2023-03-18T03:40:50;96825.03;;;11.39;55.31
43701;BME280;58809;47.984;7.964;2023-03-18T03:43:54;96832.09;;;11.25;55.44
43701;BME280;58809;47.984;7.964;2023-03-18T03:46:55;96828.13;;;11.08;56.30
43701;BME280;58809;47.984;7.964;2023-03-18T03:49:58;96829.88;;;10.94;56.21
43701;BME280;58809;47.984;7.964;2023-03-18T03:52:59;96838.28;;;10.76;57.11
43701;BME280;58809;47.984;7.964;2023-03-18T03:56:03;96836.78;;;10.67;57.03
43701;BME280;58809;47.984;7.964;2023-03-18T03:59:04;96825.63;;;10.50;57.63
43701;BME280;58809;47.984;7.964;2023-03-18T04:02:26;96825.66;;;10.13;58.09
43701;BME280;58809;47.984;7.964;2023-03-18T04:05:29;96830.88;;;14.55;49.44
43701;BME280;58809;47.984;7.964;2023-03-18T04:08:33;96835.25;;;14.99;47.96
43701;BME280;58809;47.984;7.964;2023-03-18T04:11:35;96835.00;;;15.08;47.50
43701;BME280;58809;47.984;7.964;2023-03-18T04:14:37;96834.34;;;14.87;47.59
43701;BME280;58809;47.984;7.964;2023-03-18T04:17:39;96836.00;;;14.81;47.71
43701;BME280;58809;47.984;7.964;2023-03-18T04:20:41;96836.78;;;14.89;47.29
43701;BME280;58809;47.984;7.964;2023-03-18T04:23:57;96831.03;;;14.92;46.68
43701;BME280;58809;47.984;7.964;2023-03-18T04:26:59;96835.69;;;14.96;47.09
43701;BME280;58809;47.984;7.964;2023-03-18T04:30:02;96835.69;;;14.96;47.02
43701;BME280;58809;47.984;7.964;2023-03-18T04:33:11;96830.06;;;14.86;47.34
43701;BME280;58809;47.984;7.964;2023-03-18T04:36:14;96845.44;;;14.84;47.31
43701;BME280;58809;47.984;7.964;2023-03-18T04:39:16;96842.81;;;14.77;47.29
43701;BME280;58809;47.984;7.964;2023-03-18T04:42:18;96850.03;;;14.70;47.07
43701;BME280;58809;47.984;7.964;2023-03-18T04:45:20;96840.69;;;14.61;46.97
43701;BME280;58809;47.984;7.964;2023-03-18T04:48:21;96851.75;;;14.58;47.36
43701;BME280;58809;47.984;7.964;2023-03-18T04:51:25;96850.75;;;14.52;47.41
43701;BME280;58809;47.984;7.964;2023-03-18T04:54:29;96843.53;;;14.28;47.60
43701;BME280;58809;47.984;7.964;2023-03-18T04:57:35;96852.78;;;14.18;47.96
43701;BME280;58809;47.984;7.964;2023-03-18T05:00:41;96857.31;;;14.18;47.82
43701;BME280;58809;47.984;7.964;2023-03-18T05:03:52;96851.53;;;14.21;47.72
43701;BME280;58809;47.984;7.964;2023-03-18T05:06:56;96839.75;;;14.03;48.07
43701;BME280;58809;47.984;7.964;2023-03-18T05:10:05;96847.13;;;14.01;47.99
43701;BME280;58809;47.984;7.964;2023-03-18T05:13:10;96841.44;;;13.98;48.15
43701;BME280;58809;47.984;7.964;2023-03-18T05:16:12;96839.19;;;13.95;47.84
43701;BME280;58809;47.984;7.964;2023-03-18T05:19:14;96839.38;;;13.93;47.88
43701;BME280;58809;47.984;7.964;2023-03-18T05:22:23;96849.22;;;13.93;47.66
43701;BME280;58809;47.984;7.964;2023-03-18T05:25:47;96853.56;;;13.80;47.70
43701;BME280;58809;47.984;7.964;2023-03-18T05:28:50;96846.38;;;13.81;47.62
43701;BME280;58809;47.984;7.964;2023-03-18T05:32:01;96843.63;;;13.56;47.74
43701;BME280;58809;47.984;7.964;2023-03-18T05:35:05;96848.94;;;13.49;47.99
43701;BME280;58809;47.984;7.964;2023-03-18T05:38:15;96852.00;;;13.59;47.72
43701;BME280;58809;47.984;7.964;2023-03-18T05:41:18;96844.06;;;13.33;48.18
43701;BME280;58809;47.984;7.964;2023-03-18T05:44:20;96856.53;;;13.32;48.11
43701;BME280;58809;47.984;7.964;2023-03-18T05:47:23;96854.50;;;13.41;47.91
43701;BME280;58809;47.984;7.964;2023-03-18T05:50:40;96853.25;;;13.37;47.71
43701;BME280;58809;47.984;7.964;2023-03-18T05:53:45;96866.72;;;13.22;48.03
43701;BME280;58809;47.984;7.964;2023-03-18T05:56:54;96866.53;;;13.23;47.97
43701;BME280;58809;47.984;7.964;2023-03-18T05:59:55;96871.84;;;13.17;47.93
43701;BME280;58809;47.984;7.964;2023-03-18T06:02:58;96875.34;;;13.17;48.15
43701;BME280;58809;47.984;7.964;2023-03-18T06:06:00;96878.19;;;13.09;48.18
43701;BME280;58809;47.984;7.964;2023-03-18T06:09:02;96865.94;;;13.08;48.44
43701;BME280;58809;47.984;7.964;2023-03-18T06:12:04;96871.03;;;13.23;48.38
43701;BME280;58809;47.984;7.964;2023-03-18T06:15:07;96884.28;;;13.29;48.00
43701;BME280;58809;47.984;7.964;2023-03-18T06:18:09;96878.97;;;13.50;47.70
43701;BME280;58809;47.984;7.964;2023-03-18T06:21:12;96880.41;;;13.59;47.71
43701;BME280;58809;47.984;7.964;2023-03-18T06:24:13;96886.53;;;13.66;47.75
43701;BME280;58809;47.984;7.964;2023-03-18T06:27:16;96882.00;;;13.80;47.50
43701;BME280;58809;47.984;7.964;2023-03-18T06:30:20;96895.03;;;13.88;47.09
43701;BME280;58809;47.984;7.964;2023-03-18T06:33:24;96889.16;;;13.79;47.23
43701;BME280;58809;47.984;7.964;2023-03-18T06:36:26;96892.78;;;13.98;47.18
43701;BME280;58809;47.984;7.964;2023-03-18T06:39:28;96898.56;;;14.34;46.81
43701;BME280;58809;47.984;7.964;2023-03-18T06:42:31;96901.41;;;14.77;46.26
43701;BME280;58809;47.984;7.964;2023-03-18T06:45:47;96893.66;;;15.01;45.75
43701;BME280;58809;47.984;7.964;2023-03-18T06:48:48;96892.97;;;15.12;45.72
43701;BME280;58809;47.984;7.964;2023-03-18T06:51:56;96898.41;;;15.24;45.61
43701;BME280;58809;47.984;7.964;2023-03-18T06:54:57;96911.75;;;15.24;45.75
43701;BME280;58809;47.984;7.964;2023-03-18T06:57:59;96905.44;;;15.18;46.02
43701;BME280;58809;47.984;7.964;2023-03-18T07:01:09;96910.66;;;15.32;45.95
43701;BME280;58809;47.984;7.964;2023-03-18T07:04:15;96896.59;;;15.43;45.51
43701;BME280;58809;47.984;7.964;2023-03-18T07:07:17;96908.81;;;15.51;45.21
43701;BME280;58809;47.984;7.964;2023-03-18T07:10:22;96907.81;;;15.70;44.97
43701;BME280;58809;47.984;7.964;2023-03-18T07:13:26;96905.94;;;15.96;44.92
43701;BME280;58809;47.984;7.964;2023-03-18T07:16:29;96907.25;;;16.24;44.27
43701;BME280;58809;47.984;7.964;2023-03-18T07:19:31;96902.03;;;16.47;44.13
43701;BME280;58809;47.984;7.964;2023-03-18T07:22:33;96900.66;;;16.87;43.58
43701;BME280;58809;47.984;7.964;2023-03-18T07:25:35;96899.47;;;16.71;43.79
43701;BME280;58809;47.984;7.964;2023-03-18T07:28:37;96902.31;;;17.00;43.12
43701;BME280;58809;47.984;7.964;2023-03-18T07:31:39;96912.09;;;16.64;43.82
43701;BME280;58809;47.984;7.964;2023-03-18T07:34:40;96915.91;;;16.56;43.66
43701;BME280;58809;47.984;7.964;2023-03-18T07:37:42;96918.78;;;16.54;43.30
43701;BME280;58809;47.984;7.964;2023-03-18T07:40:44;96917.69;;;16.74;43.21
43701;BME280;58809;47.984;7.964;2023-03-18T07:43:46;96914.63;;;16.28;43.18
43701;BME280;58809;47.984;7.964;2023-03-18T07:46:48;96921.34;;;17.22;42.59
43701;BME280;58809;47.984;7.964;2023-03-18T07:49:51;96920.19;;;17.65;42.14
43701;BME280;58809;47.984;7.964;2023-03-18T07:52:53;96921.13;;;17.35;41.94
43701;BME280;58809;47.984;7.964;2023-03-18T07:55:54;96914.97;;;17.35;42.37
43701;BME280;58809;47.984;7.964;2023-03-18T07:58:56;96925.66;;;17.35;42.57
43701;BME280;58809;47.984;7.964;2023-03-18T08:01:57;96919.63;;;17.86;41.77
43701;BME280;58809;47.984;7.964;2023-03-18T08:04:59;96922.75;;;18.19;40.43
43701;BME280;58809;47.984;7.964;2023-03-18T08:08:01;96917.38;;;18.19;39.52
43701;BME280;58809;47.984;7.964;2023-03-18T08:11:02;96921.53;;;18.26;38.68
43701;BME280;58809;47.984;7.964;2023-03-18T08:14:04;96919.84;;;18.49;36.62
43701;BME280;58809;47.984;7.964;2023-03-18T08:17:06;96926.78;;;18.62;35.40
43701;BME280;58809;47.984;7.964;2023-03-18T08:20:08;96926.97;;;18.72;35.05
43701;BME280;58809;47.984;7.964;2023-03-18T08:23:10;96924.75;;;18.81;34.58
43701;BME280;58809;47.984;7.964;2023-03-18T08:26:12;96926.91;;;19.30;33.86
43701;BME280;58809;47.984;7.964;2023-03-18T08:29:13;96929.50;;;19.92;32.85
43701;BME280;58809;47.984;7.964;2023-03-18T08:32:15;96936.97;;;19.06;33.87
43701;BME280;58809;47.984;7.964;2023-03-18T08:35:17;96928.50;;;18.68;34.14
43701;BME280;58809;47.984;7.964;2023-03-18T08:38:22;96926.91;;;18.55;33.94
43701;BME280;58809;47.984;7.964;2023-03-18T08:41:24;96919.13;;;18.82;33.79
43701;BME280;58809;47.984;7.964;2023-03-18T08:44:26;96916.34;;;17.84;35.09
43701;BME280;58809;47.984;7.964;2023-03-18T08:47:27;96915.91;;;17.40;35.28
43701;BME280;58809;47.984;7.964;2023-03-18T08:50:29;96919.03;;;19.23;33.27
43701;BME280;58809;47.984;7.964;2023-03-18T08:53:31;96916.78;;;20.05;32.63
43701;BME280;58809;47.984;7.964;2023-03-18T08:56:33;96916.47;;;20.94;31.23
43701;BME280;58809;47.984;7.964;2023-03-18T08:59:34;96899.91;;;20.09;31.99
43701;BME280;58809;47.984;7.964;2023-03-18T09:02:37;96896.53;;;20.41;31.54
43701;BME280;58809;47.984;7.964;2023-03-18T09:05:38;96883.59;;;20.38;31.78
43701;BME280;58809;47.984;7.964;2023-03-18T09:08:40;96894.16;;;19.45;32.20
43701;BME280;58809;47.984;7.964;2023-03-18T09:11:42;96897.31;;;19.75;32.00
43701;BME280;58809;47.984;7.964;2023-03-18T09:14:46;96888.53;;;19.80;31.85
43701;BME280;58809;47.984;7.964;2023-03-18T09:17:48;96886.72;;;19.69;31.58
43701;BME280;58809;47.984;7.964;2023-03-18T09:21:09;96884.53;;;19.66;31.73
43701;BME280;58809;47.984;7.964;2023-03-18T09:24:12;96874.59;;;20.05;31.31
43701;BME280;58809;47.984;7.964;2023-03-18T09:27:13;96875.47;;;20.33;31.30
43701;BME280;58809;47.984;7.964;2023-03-18T09:30:15;96866.22;;;20.24;30.91
43701;BME280;58809;47.984;7.964;2023-03-18T09:33:17;96866.19;;;20.68;30.80
43701;BME280;58809;47.984;7.964;2023-03-18T09:36:19;96870.00;;;20.72;30.92
43701;BME280;58809;47.984;7.964;2023-03-18T09:39:20;96867.66;;;20.81;30.89
43701;BME280;58809;47.984;7.964;2023-03-18T09:42:27;96875.69;;;20.75;30.77
43701;BME280;58809;47.984;7.964;2023-03-18T09:45:36;96865.66;;;20.44;30.38
43701;BME280;58809;47.984;7.964;2023-03-18T09:52:12;96865.78;;;20.81;30.33
43701;BME280;58809;47.984;7.964;2023-03-18T09:55:26;96861.03;;;20.88;30.19
43701;BME280;58809;47.984;7.964;2023-03-18T10:01:46;96846.28;;;21.28;29.78
43701;BME280;58809;47.984;7.964;2023-03-18T10:04:54;96857.41;;;21.42;29.99
43701;BME280;58809;47.984;7.964;2023-03-18T10:08:03;96850.84;;;21.70;29.50
43701;BME280;58809;47.984;7.964;2023-03-18T10:11:28;96859.47;;;21.67;29.55
43701;BME280;58809;47.984;7.964;2023-03-18T10:14:36;96851.47;;;21.40;29.80
43701;BME280;58809;47.984;7.964;2023-03-18T10:17:45;96868.38;;;21.35;30.03
43701;BME280;58809;47.984;7.964;2023-03-18T10:20:57;96862.44;;;21.33;30.11
43701;BME280;58809;47.984;7.964;2023-03-18T10:24:33;96860.88;;;21.38;30.10
43701;BME280;58809;47.984;7.964;2023-03-18T10:27:44;96864.59;;;21.31;29.83
43701;BME280;58809;47.984;7.964;2023-03-18T10:31:21;96857.75;;;21.51;29.90
43701;BME280;58809;47.984;7.964;2023-03-18T10:34:38;96849.84;;;21.87;30.07
43701;BME280;58809;47.984;7.964;2023-03-18T10:37:57;96852.47;;;21.71;29.87
43701;BME280;58809;47.984;7.964;2023-03-18T10:41:54;96853.06;;;21.79;29.75
43701;BME280;58809;47.984;7.964;2023-03-18T10:44:39;96840.25;;;21.53;29.81
43701;BME280;58809;47.984;7.964;2023-03-18T10:47:45;96837.16;;;21.77;29.86
43701;BME280;58809;47.984;7.964;2023-03-18T10:51:20;96835.31;;;21.83;29.63
43701;BME280;58809;47.984;7.964;2023-03-18T10:54:23;96835.34;;;21.88;29.30
43701;BME280;58809;47.984;7.964;2023-03-18T10:57:27;96842.13;;;22.01;29.05
43701;BME280;58809;47.984;7.964;2023-03-18T11:00:32;96828.59;;;21.85;29.05
43701;BME280;58809;47.984;7.964;2023-03-18T11:03:38;96839.09;;;21.87;29.25
43701;BME280;58809;47.984;7.964;2023-03-18T11:07:15;96836.81;;;22.21;28.50
43701;BME280;58809;47.984;7.964;2023-03-18T11:10:24;96839.28;;;22.28;28.46
43701;BME280;58809;47.984;7.964;2023-03-18T11:13:26;96835.38;;;22.03;28.93
43701;BME280;58809;47.984;7.964;2023-03-18T11:16:47;96831.66;;;21.14;30.09
43701;BME280;58809;47.984;7.964;2023-03-18T11:20:03;96832.81;;;22.34;29.13
43701;BME280;58809;47.984;7.964;2023-03-18T11:23:17;96834.94;;;22.22;28.71
43701;BME280;58809;47.984;7.964;2023-03-18T11:26:25;96838.94;;;22.19;28.96
43701;BME280;58809;47.984;7.964;2023-03-18T11:29:33;96839.81;;;22.30;29.09
43701;BME280;58809;47.984;7.964;2023-03-18T11:32:35;96836.88;;;22.37;29.06
43701;BME280;58809;47.984;7.964;2023-03-18T11:36:15;96836.13;;;22.52;29.22
43701;BME280;58809;47.984;7.964;2023-03-18T11:39:18;96831.22;;;22.33;29.42
43701;BME280;58809;47.984;7.964;2023-03-18T11:42:20;96821.97;;;22.14;29.45
43701;BME280;58809;47.984;7.964;2023-03-18T11:46:20;96823.59;;;22.15;29.54
43701;BME280;58809;47.984;7.964;2023-03-18T11:48:57;96819.81;;;22.21;29.67
43701;BME280;58809;47.984;7.964;2023-03-18T11:52:24;96822.56;;;22.26;29.10
43701;BME280;58809;47.984;7.964;2023-03-18T12:02:19;96810.63;;;22.11;29.07
43701;BME280;58809;47.984;7.964;2023-03-18T12:05:58;96804.50;;;22.26;29.82
43701;BME280;58809;47.984;7.964;2023-03-18T12:09:16;96807.78;;;22.39;29.50
43701;BME280;58809;47.984;7.964;2023-03-18T12:21:57;96795.88;;;23.58;28.64
43701;BME280;58809;47.984;7.964;2023-03-18T12:25:14;96788.25;;;23.91;28.45
43701;BME280;58809;47.984;7.964;2023-03-18T12:28:57;96783.53;;;24.07;27.81
43701;BME280;58809;47.984;7.964;2023-03-18T12:35:48;96792.25;;;23.93;28.26
43701;BME280;58809;47.984;7.964;2023-03-18T12:42:09;96782.56;;;23.87;28.46
43701;BME280;58809;47.984;7.964;2023-03-18T12:45:18;96774.31;;;24.18;28.94
43701;BME280;58809;47.984;7.964;2023-03-18T12:48:24;96777.94;;;23.98;28.89
43701;BME280;58809;47.984;7.964;2023-03-18T12:51:49;96772.91;;;23.60;29.44
43701;BME280;58809;47.984;7.964;2023-03-18T12:55:00;96786.16;;;24.27;28.35
43701;BME280;58809;47.984;7.964;2023-03-18T12:58:15;96777.47;;;24.75;28.25
43701;BME280;58809;47.984;7.964;2023-03-18T13:01:27;96769.97;;;24.96;27.78
43701;BME280;58809;47.984;7.964;2023-03-18T13:04:35;96776.13;;;24.72;28.03
43701;BME280;58809;47.984;7.964;2023-03-18T13:07:53;96766.44;;;24.66;28.08
43701;BME280;58809;47.984;7.964;2023-03-18T13:15:04;96755.44;;;24.87;28.34
43701;BME280;58809;47.984;7.964;2023-03-18T13:17:41;96764.34;;;24.92;28.06
43701;BME280;58809;47.984;7.964;2023-03-18T13:20:45;96759.66;;;24.69;28.83
43701;BME280;58809;47.984;7.964;2023-03-18T13:27:38;96764.38;;;24.87;28.46
43701;BME280;58809;47.984;7.964;2023-03-18T13:44:29;96750.53;;;24.59;28.83
43701;BME280;58809;47.984;7.964;2023-03-18T13:47:35;96754.47;;;24.72;28.86
43701;BME280;58809;47.984;7.964;2023-03-18T13:50:42;96742.19;;;24.85;29.31
43701;BME280;58809;47.984;7.964;2023-03-18T13:53:44;96742.66;;;25.22;28.68
43701;BME280;58809;47.984;7.964;2023-03-18T13:56:50;96732.38;;;25.24;28.61
43701;BME280;58809;47.984;7.964;2023-03-18T14:03:27;96732.75;;;24.83;28.78
43701;BME280;58809;47.984;7.964;2023-03-18T14:10:10;96726.41;;;25.22;28.28
43701;BME280;58809;47.984;7.964;2023-03-18T14:13:26;96722.91;;;25.26;28.20
43701;BME280;58809;47.984;7.964;2023-03-18T14:19:38;96719.66;;;25.91;27.78
43701;BME280;58809;47.984;7.964;2023-03-18T14:22:39;96722.91;;;25.93;27.61
43701;BME280;58809;47.984;7.964;2023-03-18T14:25:42;96719.47;;;25.64;27.95
43701;BME280;58809;47.984;7.964;2023-03-18T14:28:47;96717.25;;;25.17;28.17
43701;BME280;58809;47.984;7.964;2023-03-18T14:31:57;96718.09;;;25.42;27.83
43701;BME280;58809;47.984;7.964;2023-03-18T14:35:20;96719.94;;;25.71;27.89
43701;BME280;58809;47.984;7.964;2023-03-18T14:38:42;96713.22;;;25.44;28.36
43701;BME280;58809;47.984;7.964;2023-03-18T14:41:49;96713.03;;;25.60;28.34
43701;BME280;58809;47.984;7.964;2023-03-18T14:44:54;96705.28;;;25.72;28.31
43701;BME280;58809;47.984;7.964;2023-03-18T14:47:57;96701.13;;;25.80;28.49
43701;BME280;58809;47.984;7.964;2023-03-18T14:51:16;96705.81;;;25.74;28.39
43701;BME280;58809;47.984;7.964;2023-03-18T14:54:22;96713.47;;;25.67;28.54
43701;BME280;58809;47.984;7.964;2023-03-18T14:57:25;96708.38;;;25.41;28.99
43701;BME280;58809;47.984;7.964;2023-03-18T15:00:29;96702.31;;;25.49;29.06
43701;BME280;58809;47.984;7.964;2023-03-18T15:03:32;96711.28;;;25.21;29.20
43701;BME280;58809;47.984;7.964;2023-03-18T15:06:35;96714.03;;;25.15;29.43
43701;BME280;58809;47.984;7.964;2023-03-18T15:09:40;96711.38;;;25.10;29.64
43701;BME280;58809;47.984;7.964;2023-03-18T15:12:43;96705.97;;;25.10;29.39
43701;BME280;58809;47.984;7.964;2023-03-18T15:15:56;96706.44;;;25.17;28.89
43701;BME280;58809;47.984;7.964;2023-03-18T15:18:58;96711.41;;;25.59;28.53
43701;BME280;58809;47.984;7.964;2023-03-18T15:22:01;96715.94;;;25.44;28.73
43701;BME280;58809;47.984;7.964;2023-03-18T15:25:05;96712.34;;;25.49;28.80
43701;BME280;58809;47.984;7.964;2023-03-18T15:28:17;96718.63;;;25.87;28.16
43701;BME280;58809;47.984;7.964;2023-03-18T15:31:38;96716.31;;;26.38;27.80
43701;BME280;58809;47.984;7.964;2023-03-18T15:34:43;96718.00;;;26.15;28.04
43701;BME280;58809;47.984;7.964;2023-03-18T15:38:02;96711.50;;;25.97;27.97
43701;BME280;58809;47.984;7.964;2023-03-18T15:41:09;96715.31;;;25.96;27.88
43701;BME280;58809;47.984;7.964;2023-03-18T15:44:14;96714.22;;;25.91;27.87
43701;BME280;58809;47.984;7.964;2023-03-18T15:47:27;96708.44;;;24.77;28.61
43701;BME280;58809;47.984;7.964;2023-03-18T15:50:30;96710.31;;;24.03;29.33
43701;BME280;58809;47.984;7.964;2023-03-18T15:53:43;96708.06;;;23.66;29.64
43701;BME280;58809;47.984;7.964;2023-03-18T15:56:48;96708.34;;;23.64;29.57
43701;BME280;58809;47.984;7.964;2023-03-18T15:59:52;96711.25;;;23.78;29.39
43701;BME280;58809;47.984;7.964;2023-03-18T16:02:54;96703.91;;;24.33;29.12
43701;BME280;58809;47.984;7.964;2023-03-18T16:05:56;96715.00;;;24.32;29.28
43701;BME280;58809;47.984;7.964;2023-03-18T16:08:59;96717.06;;;24.11;29.41
43701;BME280;58809;47.984;7.964;2023-03-18T16:12:09;96718.34;;;24.18;29.25
43701;BME280;58809;47.984;7.964;2023-03-18T16:15:16;96723.22;;;24.21;29.34
43701;BME280;58809;47.984;7.964;2023-03-18T16:18:22;96714.84;;;24.18;29.44
43701;BME280;58809;47.984;7.964;2023-03-18T16:21:24;96718.06;;;24.20;29.57
43701;BME280;58809;47.984;7.964;2023-03-18T16:24:26;96718.53;;;23.88;29.75
43701;BME280;58809;47.984;7.964;2023-03-18T16:30:32;96725.97;;;23.51;30.08
43701;BME280;58809;47.984;7.964;2023-03-18T16:33:35;96726.50;;;23.48;29.89
43701;BME280;58809;47.984;7.964;2023-03-18T16:36:36;96733.06;;;23.21;29.94
43701;BME280;58809;47.984;7.964;2023-03-18T16:39:38;96726.63;;;23.12;29.93
43701;BME280;58809;47.984;7.964;2023-03-18T16:42:40;96737.97;;;22.68;30.57
43701;BME280;58809;47.984;7.964;2023-03-18T16:45:42;96748.19;;;22.45;30.83
43701;BME280;58809;47.984;7.964;2023-03-18T16:48:44;96742.00;;;22.40;30.66
43701;BME280;58809;47.984;7.964;2023-03-18T16:51:46;96740.13;;;22.40;30.94
43701;BME280;58809;47.984;7.964;2023-03-18T16:54:47;96747.13;;;22.41;31.30
43701;BME280;58809;47.984;7.964;2023-03-18T16:57:54;96750.59;;;22.26;32.21
43701;BME280;58809;47.984;7.964;2023-03-18T17:00:58;96751.41;;;22.22;32.23
43701;BME280;58809;47.984;7.964;2023-03-18T17:04:00;96761.41;;;23.03;31.80
43701;BME280;58809;47.984;7.964;2023-03-18T17:07:06;96774.38;;;22.86;32.27
43701;BME280;58809;47.984;7.964;2023-03-18T17:10:09;96761.16;;;22.79;33.14
43701;BME280;58809;47.984;7.964;2023-03-18T17:13:26;96742.00;;;22.40;35.03
43701;BME280;58809;47.984;7.964;2023-03-18T17:16:28;96753.97;;;21.81;34.21
43701;BME280;58809;47.984;7.964;2023-03-18T17:19:32;96760.47;;;21.90;33.84
43701;BME280;58809;47.984;7.964;2023-03-18T17:22:35;96769.34;;;21.90;35.04
43701;BME280;58809;47.984;7.964;2023-03-18T17:25:36;96767.91;;;21.62;36.87
43701;BME280;58809;47.984;7.964;2023-03-18T17:28:40;96776.28;;;21.23;37.83
43701;BME280;58809;47.984;7.964;2023-03-18T17:31:45;96781.47;;;21.40;38.29
43701;BME280;58809;47.984;7.964;2023-03-18T17:34:49;96796.78;;;21.34;38.86